sensor_id;sensor_type;location;lat;lon;timestamp;pressure;altitude;pressure_sealevel;temperature;humidity
36248;BME280;22287;50.824;5.644;2023-04-02T00:00:35;100060.56;;;9.32;87.20
36248;BME280;22287;50.824;5.644;2023-04-02T00:03:04;100081.22;;;9.22;87.96
36248;BME280;22287;50.824;5.644;2023-04-02T00:05:40;100076.19;;;8.99;88.47
36248;BME280;22287;50.824;5.644;2023-04-02T00:10:57;100093.94;;;9.01;87.99
36248;BME280;22287;50.824;5.644;2023-04-02T00:13:29;100096.81;;;9.09;87.35
36248;BME280;22287;50.824;5.644;2023-04-02T00:15:58;100094.09;;;9.00;87.98
36248;BME280;22287;50.824;5.644;2023-04-02T00:18:26;100096.16;;;9.17;86.75
36248;BME280;22287;50.824;5.644;2023-04-02T00:21:32;100105.81;;;9.29;87.50
36248;BME280;22287;50.824;5.644;2023-04-02T00:24:02;100104.31;;;9.45;85.74
36248;BME280;22287;50.824;5.644;2023-04-02T00:26:38;100108.19;;;9.22;86.42
36248;BME280;22287;50.824;5.644;2023-04-02T00:29:11;100117.31;;;8.91;88.16
36248;BME280;22287;50.824;5.644;2023-04-02T00:31:57;100115.78;;;8.98;87.19
36248;BME280;22287;50.824;5.644;2023-04-02T00:34:29;100121.44;;;8.95;86.84
36248;BME280;22287;50.824;5.644;2023-04-02T00:36:57;100121.13;;;9.19;86.40
36248;BME280;22287;50.824;5.644;2023-04-02T00:39:28;100124.56;;;9.30;86.36
36248;BME280;22287;50.824;5.644;2023-04-02T00:41:57;100130.28;;;9.07;86.82
36248;BME280;22287;50.824;5.644;2023-04-02T00:44:39;100132.13;;;9.06;86.53
36248;BME280;22287;50.824;5.644;2023-04-02T00:47:22;100133.53;;;9.50;84.67
36248;BME280;22287;50.824;5.644;2023-04-02T00:49:56;100133.59;;;9.60;83.33
36248;BME280;22287;50.824;5.644;2023-04-02T00:52:27;100138.22;;;9.38;85.01
36248;BME280;22287;50.824;5.644;2023-04-02T00:55:07;100135.06;;;9.03;85.91
36248;BME280;22287;50.824;5.644;2023-04-02T00:57:36;100148.19;;;8.87;87.49
36248;BME280;22287;50.824;5.644;2023-04-02T01:05:48;100165.88;;;8.80;87.27
36248;BME280;22287;50.824;5.644;2023-04-02T01:11:06;100175.06;;;8.98;87.11
36248;BME280;22287;50.824;5.644;2023-04-02T01:24:37;100183.91;;;8.59;87.88
36248;BME280;22287;50.824;5.644;2023-04-02T01:27:12;100189.06;;;8.51;87.42
36248;BME280;22287;50.824;5.644;2023-04-02T01:29:46;100198.94;;;8.61;87.66
36248;BME280;22287;50.824;5.644;2023-04-02T01:32:16;100201.69;;;8.71;86.77
36248;BME280;22287;50.824;5.644;2023-04-02T01:34:48;100209.78;;;8.92;85.39
36248;BME280;22287;50.824;5.644;2023-04-02T01:37:36;100211.38;;;8.94;85.34
36248;BME280;22287;50.824;5.644;2023-04-02T01:40:44;100225.84;;;8.41;87.52
36248;BME280;22287;50.824;5.644;2023-04-02T01:43:40;100219.44;;;8.53;86.09
36248;BME280;22287;50.824;5.644;2023-04-02T01:46:31;100216.22;;;8.59;85.82
36248;BME280;22287;50.824;5.644;2023-04-02T01:49:18;100220.03;;;8.98;84.60
36248;BME280;22287;50.824;5.644;2023-04-02T01:51:50;100223.19;;;8.82;84.83
36248;BME280;22287;50.824;5.644;2023-04-02T01:54:20;100230.50;;;8.39;86.78
36248;BME280;22287;50.824;5.644;2023-04-02T01:56:48;100237.63;;;8.60;86.54
36248;BME280;22287;50.824;5.644;2023-04-02T01:59:18;100244.47;;;8.33;87.72
36248;BME280;22287;50.824;5.644;2023-04-02T02:01:57;100252.53;;;8.44;86.95
36248;BME280;22287;50.824;5.644;2023-04-02T02:04:27;100256.13;;;8.54;85.38
36248;BME280;22287;50.824;5.644;2023-04-02T02:06:56;100266.53;;;8.15;87.57
36248;BME280;22287;50.824;5.644;2023-04-02T02:09:28;100264.56;;;8.06;88.42
36248;BME280;22287;50.824;5.644;2023-04-02T02:11:57;100268.72;;;8.33;87.14
36248;BME280;22287;50.824;5.644;2023-04-02T02:14:26;100272.03;;;8.57;86.37
36248;BME280;22287;50.824;5.644;2023-04-02T02:16:58;100269.91;;;8.40;86.30
36248;BME280;22287;50.824;5.644;2023-04-02T02:19:46;100282.84;;;8.46;86.47
36248;BME280;22287;50.824;5.644;2023-04-02T02:22:35;100281.13;;;8.56;85.71
36248;BME280;22287;50.824;5.644;2023-04-02T02:25:14;100288.38;;;8.44;86.31
36248;BME280;22287;50.824;5.644;2023-04-02T02:30:21;100304.44;;;8.12;86.84
36248;BME280;22287;50.824;5.644;2023-04-02T02:33:00;100303.69;;;8.44;86.51
36248;BME280;22287;50.824;5.644;2023-04-02T02:35:37;100311.41;;;8.37;86.33
36248;BME280;22287;50.824;5.644;2023-04-02T02:41:16;100320.09;;;8.18;86.88
36248;BME280;22287;50.824;5.644;2023-04-02T02:46:39;100327.94;;;8.10;86.73
36248;BME280;22287;50.824;5.644;2023-04-02T02:49:14;100333.56;;;8.07;86.83
36248;BME280;22287;50.824;5.644;2023-04-02T02:51:46;100344.34;;;8.07;87.46
36248;BME280;22287;50.824;5.644;2023-04-02T02:54:20;100337.72;;;8.22;86.97
36248;BME280;22287;50.824;5.644;2023-04-02T02:56:53;100346.31;;;8.05;86.48
36248;BME280;22287;50.824;5.644;2023-04-02T02:59:23;100346.31;;;7.94;87.26
36248;BME280;22287;50.824;5.644;2023-04-02T03:01:51;100357.19;;;7.93;87.14
36248;BME280;22287;50.824;5.644;2023-04-02T03:04:22;100366.59;;;8.09;86.89
36248;BME280;22287;50.824;5.644;2023-04-02T03:06:55;100365.00;;;8.07;86.69
36248;BME280;22287;50.824;5.644;2023-04-02T03:09:52;100374.06;;;8.17;85.53
36248;BME280;22287;50.824;5.644;2023-04-02T03:15:30;100378.44;;;7.74;87.39
36248;BME280;22287;50.824;5.644;2023-04-02T03:18:06;100390.78;;;7.65;88.07
36248;BME280;22287;50.824;5.644;2023-04-02T03:26:00;100405.97;;;7.66;87.89
36248;BME280;22287;50.824;5.644;2023-04-02T03:28:34;100415.16;;;7.86;88.00
36248;BME280;22287;50.824;5.644;2023-04-02T03:31:12;100411.63;;;7.85;86.92
36248;BME280;22287;50.824;5.644;2023-04-02T03:33:50;100420.94;;;8.03;85.49
36248;BME280;22287;50.824;5.644;2023-04-02T03:36:41;100422.38;;;8.07;86.03
36248;BME280;22287;50.824;5.644;2023-04-02T03:39:24;100432.06;;;8.43;84.54
36248;BME280;22287;50.824;5.644;2023-04-02T03:41:59;100438.34;;;8.33;84.23
36248;BME280;22287;50.824;5.644;2023-04-02T03:47:22;100444.16;;;8.15;85.06
36248;BME280;22287;50.824;5.644;2023-04-02T03:50:10;100456.00;;;7.91;86.23
36248;BME280;22287;50.824;5.644;2023-04-02T03:52:40;100458.88;;;7.65;87.10
36248;BME280;22287;50.824;5.644;2023-04-02T03:55:46;100471.09;;;7.58;86.89
36248;BME280;22287;50.824;5.644;2023-04-02T03:58:23;100476.28;;;7.38;88.30
36248;BME280;22287;50.824;5.644;2023-04-02T04:03:40;100482.25;;;7.30;88.04
36248;BME280;22287;50.824;5.644;2023-04-02T04:08:53;100491.03;;;7.32;87.99
36248;BME280;22287;50.824;5.644;2023-04-02T04:11:25;100499.63;;;7.37;86.61
36248;BME280;22287;50.824;5.644;2023-04-02T04:16:28;100513.44;;;7.44;87.67
36248;BME280;22287;50.824;5.644;2023-04-02T04:19:03;100509.06;;;7.78;85.86
36248;BME280;22287;50.824;5.644;2023-04-02T04:21:33;100515.91;;;7.82;84.17
36248;BME280;22287;50.824;5.644;2023-04-02T04:24:22;100522.25;;;7.69;85.66
36248;BME280;22287;50.824;5.644;2023-04-02T04:27:05;100531.91;;;7.48;86.47
36248;BME280;22287;50.824;5.644;2023-04-02T04:34:47;100545.13;;;7.51;86.10
36248;BME280;22287;50.824;5.644;2023-04-02T04:37:31;100554.13;;;7.39;87.00
36248;BME280;22287;50.824;5.644;2023-04-02T04:40:14;100561.97;;;7.42;86.87
36248;BME280;22287;50.824;5.644;2023-04-02T04:42:44;100566.19;;;7.57;86.33
36248;BME280;22287;50.824;5.644;2023-04-02T04:45:39;100573.56;;;8.01;84.65
36248;BME280;22287;50.824;5.644;2023-04-02T04:48:14;100573.94;;;7.62;84.69
36248;BME280;22287;50.824;5.644;2023-04-02T04:50:58;100586.94;;;7.79;84.88
36248;BME280;22287;50.824;5.644;2023-04-02T04:53:29;100588.22;;;7.86;83.72
36248;BME280;22287;50.824;5.644;2023-04-02T04:55:59;100587.25;;;7.40;85.73
36248;BME280;22287;50.824;5.644;2023-04-02T04:58:48;100595.00;;;7.79;84.41
36248;BME280;22287;50.824;5.644;2023-04-02T05:01:42;100605.66;;;7.33;86.30
36248;BME280;22287;50.824;5.644;2023-04-02T05:07:09;100616.31;;;7.58;84.68
36248;BME280;22287;50.824;5.644;2023-04-02T05:10:11;100613.69;;;7.09;87.03
36248;BME280;22287;50.824;5.644;2023-04-02T05:13:19;100628.56;;;7.62;85.78
36248;BME280;22287;50.824;5.644;2023-04-02T05:26:42;100654.44;;;7.03;86.99
36248;BME280;22287;50.824;5.644;2023-04-02T05:29:20;100656.88;;;7.32;86.18
36248;BME280;22287;50.824;5.644;2023-04-02T05:32:09;100664.00;;;7.07;86.37
36248;BME280;22287;50.824;5.644;2023-04-02T05:34:40;100673.47;;;7.00;87.26
36248;BME280;22287;50.824;5.644;2023-04-02T05:37:15;100678.59;;;7.29;86.60
36248;BME280;22287;50.824;5.644;2023-04-02T05:39:44;100681.41;;;7.15;86.40
36248;BME280;22287;50.824;5.644;2023-04-02T05:42:17;100679.91;;;7.10;85.76
36248;BME280;22287;50.824;5.644;2023-04-02T05:47:32;100698.38;;;7.02;85.30
36248;BME280;22287;50.824;5.644;2023-04-02T05:52:42;100699.34;;;7.01;85.87
36248;BME280;22287;50.824;5.644;2023-04-02T06:00:19;100712.38;;;6.95;86.06
36248;BME280;22287;50.824;5.644;2023-04-02T06:02:59;100730.28;;;6.69;86.84
36248;BME280;22287;50.824;5.644;2023-04-02T06:05:32;100733.41;;;6.63;86.68
36248;BME280;22287;50.824;5.644;2023-04-02T06:08:06;100733.44;;;6.88;86.10
36248;BME280;22287;50.824;5.644;2023-04-02T06:10:43;100740.16;;;6.56;87.04
36248;BME280;22287;50.824;5.644;2023-04-02T06:13:15;100745.69;;;7.05;86.22
36248;BME280;22287;50.824;5.644;2023-04-02T06:15:44;100751.03;;;6.67;86.81
36248;BME280;22287;50.824;5.644;2023-04-02T06:18:24;100755.44;;;6.68;86.36
36248;BME280;22287;50.824;5.644;2023-04-02T06:20:53;100755.75;;;6.64;86.89
36248;BME280;22287;50.824;5.644;2023-04-02T06:23:44;100761.16;;;7.01;85.71
36248;BME280;22287;50.824;5.644;2023-04-02T06:26:32;100771.91;;;6.76;85.94
36248;BME280;22287;50.824;5.644;2023-04-02T06:29:03;100783.06;;;6.70;86.55
36248;BME280;22287;50.824;5.644;2023-04-02T06:31:35;100788.09;;;6.62;86.70
36248;BME280;22287;50.824;5.644;2023-04-02T06:34:14;100796.69;;;6.67;85.84
36248;BME280;22287;50.824;5.644;2023-04-02T06:36:49;100800.31;;;6.66;85.95
36248;BME280;22287;50.824;5.644;2023-04-02T06:39:20;100799.03;;;6.59;86.32
36248;BME280;22287;50.824;5.644;2023-04-02T06:44:51;100804.88;;;6.78;85.78
36248;BME280;22287;50.824;5.644;2023-04-02T06:47:39;100808.50;;;6.77;85.08
36248;BME280;22287;50.824;5.644;2023-04-02T06:52:57;100823.94;;;7.00;83.83
36248;BME280;22287;50.824;5.644;2023-04-02T06:57:54;100837.66;;;6.83;83.92
36248;BME280;22287;50.824;5.644;2023-04-02T07:00:42;100842.75;;;6.61;84.97
36248;BME280;22287;50.824;5.644;2023-04-02T07:03:32;100855.22;;;6.62;85.68
36248;BME280;22287;50.824;5.644;2023-04-02T07:06:15;100854.19;;;6.50;85.22
36248;BME280;22287;50.824;5.644;2023-04-02T07:08:44;100868.28;;;6.54;84.40
36248;BME280;22287;50.824;5.644;2023-04-02T07:11:14;100874.44;;;6.69;84.93
36248;BME280;22287;50.824;5.644;2023-04-02T07:13:44;100875.25;;;6.83;84.29
36248;BME280;22287;50.824;5.644;2023-04-02T07:16:16;100885.13;;;6.83;85.21
36248;BME280;22287;50.824;5.644;2023-04-02T07:18:44;100893.97;;;6.58;85.81
36248;BME280;22287;50.824;5.644;2023-04-02T07:21:11;100892.25;;;6.84;84.83
36248;BME280;22287;50.824;5.644;2023-04-02T07:23:38;100897.13;;;6.65;84.82
36248;BME280;22287;50.824;5.644;2023-04-02T07:26:06;100907.47;;;6.71;84.32
36248;BME280;22287;50.824;5.644;2023-04-02T07:28:34;100913.63;;;6.59;84.74
36248;BME280;22287;50.824;5.644;2023-04-02T07:31:01;100916.34;;;6.71;83.51
36248;BME280;22287;50.824;5.644;2023-04-02T07:33:29;100919.31;;;6.54;83.45
36248;BME280;22287;50.824;5.644;2023-04-02T07:35:57;100916.84;;;6.37;85.07
36248;BME280;22287;50.824;5.644;2023-04-02T07:38:24;100926.69;;;6.50;84.72
36248;BME280;22287;50.824;5.644;2023-04-02T07:40:51;100933.34;;;6.98;82.77
36248;BME280;22287;50.824;5.644;2023-04-02T07:43:18;100932.44;;;6.59;84.38
36248;BME280;22287;50.824;5.644;2023-04-02T07:45:45;100945.19;;;6.55;84.71
36248;BME280;22287;50.824;5.644;2023-04-02T07:48:12;100946.91;;;6.56;84.41
36248;BME280;22287;50.824;5.644;2023-04-02T07:50:39;100951.56;;;6.26;85.70
36248;BME280;22287;50.824;5.644;2023-04-02T07:53:17;100955.31;;;6.23;85.58
36248;BME280;22287;50.824;5.644;2023-04-02T07:55:52;100962.19;;;6.13;85.11
36248;BME280;22287;50.824;5.644;2023-04-02T07:58:19;100965.47;;;6.18;85.57
36248;BME280;22287;50.824;5.644;2023-04-02T08:00:47;100973.03;;;6.26;84.83
36248;BME280;22287;50.824;5.644;2023-04-02T08:03:13;100982.81;;;6.27;84.68
36248;BME280;22287;50.824;5.644;2023-04-02T08:05:41;100988.19;;;6.27;84.71
36248;BME280;22287;50.824;5.644;2023-04-02T08:08:08;100986.47;;;6.26;83.63
36248;BME280;22287;50.824;5.644;2023-04-02T08:10:35;100991.81;;;6.26;83.71
36248;BME280;22287;50.824;5.644;2023-04-02T08:13:02;100992.00;;;6.51;83.72
36248;BME280;22287;50.824;5.644;2023-04-02T08:15:29;101001.50;;;6.42;82.96
36248;BME280;22287;50.824;5.644;2023-04-02T08:17:56;101007.72;;;6.01;84.73
36248;BME280;22287;50.824;5.644;2023-04-02T08:20:23;101011.38;;;6.28;84.00
36248;BME280;22287;50.824;5.644;2023-04-02T08:22:51;101016.38;;;6.20;84.55
36248;BME280;22287;50.824;5.644;2023-04-02T08:25:17;101028.44;;;6.13;84.49
36248;BME280;22287;50.824;5.644;2023-04-02T08:27:47;101023.09;;;6.27;83.33
36248;BME280;22287;50.824;5.644;2023-04-02T08:30:16;101033.41;;;6.19;82.98
36248;BME280;22287;50.824;5.644;2023-04-02T08:32:43;101031.50;;;6.21;82.97
36248;BME280;22287;50.824;5.644;2023-04-02T08:35:13;101047.91;;;6.44;81.48
36248;BME280;22287;50.824;5.644;2023-04-02T08:37:40;101032.75;;;6.15;84.26
36248;BME280;22287;50.824;5.644;2023-04-02T08:40:17;101038.22;;;6.28;82.96
36248;BME280;22287;50.824;5.644;2023-04-02T08:42:54;101046.16;;;6.43;82.65
36248;BME280;22287;50.824;5.644;2023-04-02T08:48:13;101065.44;;;6.22;82.59
36248;BME280;22287;50.824;5.644;2023-04-02T08:50:42;101072.34;;;6.26;81.91
36248;BME280;22287;50.824;5.644;2023-04-02T08:53:21;101078.94;;;6.20;82.07
36248;BME280;22287;50.824;5.644;2023-04-02T08:58:46;101087.47;;;6.13;83.00
36248;BME280;22287;50.824;5.644;2023-04-02T09:04:15;101095.34;;;6.30;82.20
36248;BME280;22287;50.824;5.644;2023-04-02T09:06:42;101102.22;;;6.20;82.79
36248;BME280;22287;50.824;5.644;2023-04-02T09:09:13;101105.13;;;6.31;81.29
36248;BME280;22287;50.824;5.644;2023-04-02T09:11:43;101113.03;;;6.62;79.08
36248;BME280;22287;50.824;5.644;2023-04-02T09:14:19;101118.75;;;6.42;80.46
36248;BME280;22287;50.824;5.644;2023-04-02T09:16:54;101124.13;;;6.56;79.64
36248;BME280;22287;50.824;5.644;2023-04-02T09:19:35;101126.09;;;6.24;80.08
36248;BME280;22287;50.824;5.644;2023-04-02T09:22:22;101141.56;;;6.35;81.70
36248;BME280;22287;50.824;5.644;2023-04-02T09:24:54;101140.03;;;6.31;80.58
36248;BME280;22287;50.824;5.644;2023-04-02T09:27:32;101139.22;;;6.15;80.72
36248;BME280;22287;50.824;5.644;2023-04-02T09:30:14;101147.84;;;6.20;79.99
36248;BME280;22287;50.824;5.644;2023-04-02T09:32:52;101161.38;;;6.32;79.59
36248;BME280;22287;50.824;5.644;2023-04-02T09:35:20;101157.69;;;6.63;79.77
36248;BME280;22287;50.824;5.644;2023-04-02T09:38:27;101166.88;;;6.31;79.19
36248;BME280;22287;50.824;5.644;2023-04-02T09:41:18;101175.91;;;6.44;79.70
36248;BME280;22287;50.824;5.644;2023-04-02T09:43:45;101168.91;;;6.41;77.50
36248;BME280;22287;50.824;5.644;2023-04-02T09:46:15;101173.09;;;6.31;78.36
36248;BME280;22287;50.824;5.644;2023-04-02T09:48:47;101178.94;;;6.38;78.28
36248;BME280;22287;50.824;5.644;2023-04-02T09:51:20;101182.44;;;6.40;78.76
36248;BME280;22287;50.824;5.644;2023-04-02T09:56:38;101189.50;;;6.41;80.57
36248;BME280;22287;50.824;5.644;2023-04-02T10:01:43;101203.03;;;6.39;79.29
36248;BME280;22287;50.824;5.644;2023-04-02T10:04:36;101210.81;;;6.58;78.30
36248;BME280;22287;50.824;5.644;2023-04-02T10:07:05;101216.75;;;6.49;78.11
36248;BME280;22287;50.824;5.644;2023-04-02T10:09:36;101219.38;;;6.21;77.02
36248;BME280;22287;50.824;5.644;2023-04-02T10:12:06;101218.28;;;6.39;78.93
36248;BME280;22287;50.824;5.644;2023-04-02T10:14:39;101219.06;;;6.55;78.68
36248;BME280;22287;50.824;5.644;2023-04-02T10:17:13;101224.00;;;6.33;78.49
36248;BME280;22287;50.824;5.644;2023-04-02T10:19:48;101218.63;;;6.63;78.59
36248;BME280;22287;50.824;5.644;2023-04-02T10:22:18;101233.63;;;6.95;76.89
36248;BME280;22287;50.824;5.644;2023-04-02T10:24:46;101235.88;;;6.59;77.94
36248;BME280;22287;50.824;5.644;2023-04-02T10:35:37;101255.56;;;6.73;77.63
36248;BME280;22287;50.824;5.644;2023-04-02T10:43:32;101263.41;;;6.62;78.18
36248;BME280;22287;50.824;5.644;2023-04-02T10:51:40;101278.28;;;6.68;77.14
36248;BME280;22287;50.824;5.644;2023-04-02T10:54:28;101287.44;;;6.79;76.08
36248;BME280;22287;50.824;5.644;2023-04-02T10:57:25;101291.69;;;6.54;76.08
36248;BME280;22287;50.824;5.644;2023-04-02T11:05:28;101299.72;;;6.24;77.84
36248;BME280;22287;50.824;5.644;2023-04-02T11:08:08;101297.69;;;6.43;78.22
36248;BME280;22287;50.824;5.644;2023-04-02T11:10:45;101303.81;;;6.45;77.03
36248;BME280;22287;50.824;5.644;2023-04-02T11:13:19;101310.13;;;6.44;77.20
36248;BME280;22287;50.824;5.644;2023-04-02T11:15:48;101315.34;;;6.47;76.16
36248;BME280;22287;50.824;5.644;2023-04-02T11:18:25;101320.00;;;6.43;76.70
36248;BME280;22287;50.824;5.644;2023-04-02T11:24:01;101336.84;;;7.21;73.29
36248;BME280;22287;50.824;5.644;2023-04-02T11:29:18;101337.06;;;6.58;77.02
36248;BME280;22287;50.824;5.644;2023-04-02T11:31:48;101342.47;;;6.72;76.18
36248;BME280;22287;50.824;5.644;2023-04-02T11:37:31;101346.72;;;6.76;75.02
36248;BME280;22287;50.824;5.644;2023-04-02T11:39:57;101347.78;;;6.58;75.02
36248;BME280;22287;50.824;5.644;2023-04-02T11:42:28;101359.28;;;6.60;76.84
36248;BME280;22287;50.824;5.644;2023-04-02T11:47:41;101355.59;;;6.92;74.97
36248;BME280;22287;50.824;5.644;2023-04-02T11:50:27;101363.19;;;6.70;75.09
36248;BME280;22287;50.824;5.644;2023-04-02T11:52:57;101368.88;;;7.09;73.76
36248;BME280;22287;50.824;5.644;2023-04-02T11:55:29;101365.69;;;7.03;76.42
36248;BME280;22287;50.824;5.644;2023-04-02T12:11:44;101395.91;;;6.77;75.53
36248;BME280;22287;50.824;5.644;2023-04-02T12:17:28;101393.69;;;6.99;74.80
36248;BME280;22287;50.824;5.644;2023-04-02T12:20:01;101397.75;;;7.06;74.69
36248;BME280;22287;50.824;5.644;2023-04-02T12:22:31;101400.69;;;7.01;74.33
36248;BME280;22287;50.824;5.644;2023-04-02T12:25:04;101397.50;;;7.25;74.31
36248;BME280;22287;50.824;5.644;2023-04-02T12:27:32;101404.97;;;7.05;74.62
36248;BME280;22287;50.824;5.644;2023-04-02T12:30:16;101407.34;;;6.80;75.13
36248;BME280;22287;50.824;5.644;2023-04-02T12:32:43;101420.84;;;6.94;74.59
36248;BME280;22287;50.824;5.644;2023-04-02T12:37:52;101418.97;;;7.10;73.08
36248;BME280;22287;50.824;5.644;2023-04-02T12:40:19;101433.09;;;7.44;72.09
36248;BME280;22287;50.824;5.644;2023-04-02T12:42:46;101425.56;;;7.35;73.08
36248;BME280;22287;50.824;5.644;2023-04-02T12:45:25;101426.25;;;7.38;73.38
36248;BME280;22287;50.824;5.644;2023-04-02T12:47:56;101428.03;;;7.24;73.89
36248;BME280;22287;50.824;5.644;2023-04-02T12:50:22;101430.59;;;7.11;74.26
36248;BME280;22287;50.824;5.644;2023-04-02T12:52:51;101432.06;;;7.17;74.08
36248;BME280;22287;50.824;5.644;2023-04-02T12:55:25;101429.06;;;7.37;73.63
36248;BME280;22287;50.824;5.644;2023-04-02T12:57:57;101434.72;;;7.46;72.53
36248;BME280;22287;50.824;5.644;2023-04-02T13:02:58;101429.00;;;6.93;74.70
36248;BME280;22287;50.824;5.644;2023-04-02T13:05:38;101432.81;;;7.19;73.51
36248;BME280;22287;50.824;5.644;2023-04-02T13:08:24;101445.06;;;7.38;72.88
36248;BME280;22287;50.824;5.644;2023-04-02T13:10:55;101451.66;;;7.19;73.59
36248;BME280;22287;50.824;5.644;2023-04-02T13:13:31;101458.53;;;7.08;73.03
36248;BME280;22287;50.824;5.644;2023-04-02T13:16:01;101463.28;;;7.63;71.16
36248;BME280;22287;50.824;5.644;2023-04-02T13:18:30;101456.25;;;7.17;73.24
36248;BME280;22287;50.824;5.644;2023-04-02T13:21:05;101455.91;;;7.23;71.95
36248;BME280;22287;50.824;5.644;2023-04-02T13:23:35;101455.91;;;7.23;73.41
36248;BME280;22287;50.824;5.644;2023-04-02T13:28:38;101464.94;;;7.36;73.36
36248;BME280;22287;50.824;5.644;2023-04-02T13:31:13;101474.28;;;7.44;73.39
36248;BME280;22287;50.824;5.644;2023-04-02T13:33:40;101472.25;;;7.34;74.61
36248;BME280;22287;50.824;5.644;2023-04-02T13:36:14;101472.22;;;7.20;72.33
36248;BME280;22287;50.824;5.644;2023-04-02T13:38:41;101477.53;;;7.05;72.80
36248;BME280;22287;50.824;5.644;2023-04-02T13:41:37;101475.34;;;7.42;71.54
36248;BME280;22287;50.824;5.644;2023-04-02T13:44:06;101481.34;;;7.61;72.80
36248;BME280;22287;50.824;5.644;2023-04-02T13:46:36;101478.28;;;7.67;71.29
36248;BME280;22287;50.824;5.644;2023-04-02T13:49:03;101482.44;;;7.29;72.19
36248;BME280;22287;50.824;5.644;2023-04-02T13:51:50;101483.47;;;7.56;71.24
36248;BME280;22287;50.824;5.644;2023-04-02T13:54:24;101487.84;;;7.57;72.43
36248;BME280;22287;50.824;5.644;2023-04-02T13:56:54;101487.06;;;7.41;73.25
36248;BME280;22287;50.824;5.644;2023-04-02T13:59:22;101492.19;;;7.59;72.36
36248;BME280;22287;50.824;5.644;2023-04-02T14:01:51;101499.03;;;7.79;71.22
36248;BME280;22287;50.824;5.644;2023-04-02T14:04:23;101500.75;;;7.66;71.83
36248;BME280;22287;50.824;5.644;2023-04-02T14:07:13;101502.06;;;7.45;72.53
36248;BME280;22287;50.824;5.644;2023-04-02T14:09:59;101511.44;;;7.38;72.39
36248;BME280;22287;50.824;5.644;2023-04-02T14:21:26;101521.88;;;7.13;73.05
36248;BME280;22287;50.824;5.644;2023-04-02T14:24:09;101521.88;;;7.13;73.64
36248;BME280;22287;50.824;5.644;2023-04-02T14:30:03;101524.81;;;7.39;72.87
36248;BME280;22287;50.824;5.644;2023-04-02T14:35:20;101532.78;;;7.41;73.11
36248;BME280;22287;50.824;5.644;2023-04-02T14:38:20;101527.31;;;7.42;72.24
36248;BME280;22287;50.824;5.644;2023-04-02T14:41:03;101526.09;;;7.32;72.93
36248;BME280;22287;50.824;5.644;2023-04-02T14:43:42;101530.88;;;7.43;72.35
36248;BME280;22287;50.824;5.644;2023-04-02T14:46:10;101534.34;;;7.45;72.81
36248;BME280;22287;50.824;5.644;2023-04-02T14:51:52;101545.22;;;7.57;73.17
36248;BME280;22287;50.824;5.644;2023-04-02T14:54:33;101547.19;;;7.24;72.28
36248;BME280;22287;50.824;5.644;2023-04-02T14:57:10;101553.97;;;7.61;72.25
36248;BME280;22287;50.824;5.644;2023-04-02T15:05:21;101565.78;;;7.29;73.99
36248;BME280;22287;50.824;5.644;2023-04-02T15:08:00;101565.78;;;7.29;72.79
36248;BME280;22287;50.824;5.644;2023-04-02T15:10:31;101574.22;;;7.52;71.14
36248;BME280;22287;50.824;5.644;2023-04-02T15:13:05;101573.16;;;7.25;72.36
36248;BME280;22287;50.824;5.644;2023-04-02T15:15:49;101579.28;;;7.43;71.73
36248;BME280;22287;50.824;5.644;2023-04-02T15:18:18;101577.06;;;7.20;72.17
36248;BME280;22287;50.824;5.644;2023-04-02T15:32:00;101584.66;;;7.27;72.16
36248;BME280;22287;50.824;5.644;2023-04-02T15:34:34;101578.06;;;7.33;71.68
36248;BME280;22287;50.824;5.644;2023-04-02T15:42:37;101598.63;;;7.34;69.04
36248;BME280;22287;50.824;5.644;2023-04-02T15:52:56;101606.97;;;7.75;68.70
36248;BME280;22287;50.824;5.644;2023-04-02T15:55:32;101609.78;;;7.57;71.33
36248;BME280;22287;50.824;5.644;2023-04-02T16:00:28;101624.38;;;7.38;69.95
36248;BME280;22287;50.824;5.644;2023-04-02T16:06:39;101629.84;;;7.36;69.99
36248;BME280;22287;50.824;5.644;2023-04-02T16:09:20;101627.63;;;7.74;70.14
36248;BME280;22287;50.824;5.644;2023-04-02T16:11:57;101632.88;;;7.46;70.18
36248;BME280;22287;50.824;5.644;2023-04-02T16:14:27;101639.28;;;7.59;70.91
36248;BME280;22287;50.824;5.644;2023-04-02T16:16:58;101643.13;;;7.24;70.45
36248;BME280;22287;50.824;5.644;2023-04-02T16:24:31;101656.31;;;7.28;69.31
36248;BME280;22287;50.824;5.644;2023-04-02T16:33:21;101655.38;;;7.45;69.75
36248;BME280;22287;50.824;5.644;2023-04-02T16:36:10;101658.72;;;7.01;70.89
36248;BME280;22287;50.824;5.644;2023-04-02T16:38:58;101667.25;;;7.09;69.58
36248;BME280;22287;50.824;5.644;2023-04-02T16:53:06;101694.28;;;7.06;67.51
36248;BME280;22287;50.824;5.644;2023-04-02T17:01:19;101705.59;;;7.29;67.02
36248;BME280;22287;50.824;5.644;2023-04-02T17:03:57;101715.13;;;7.50;66.03
36248;BME280;22287;50.824;5.644;2023-04-02T17:06:33;101713.50;;;7.32;66.75
36248;BME280;22287;50.824;5.644;2023-04-02T17:12:02;101726.50;;;6.91;67.87
36248;BME280;22287;50.824;5.644;2023-04-02T17:14:34;101723.06;;;7.04;66.83
36248;BME280;22287;50.824;5.644;2023-04-02T17:17:04;101732.41;;;6.97;68.18
36248;BME280;22287;50.824;5.644;2023-04-02T17:19:31;101738.75;;;7.45;64.58
36248;BME280;22287;50.824;5.644;2023-04-02T17:22:01;101732.88;;;7.21;65.85
36248;BME280;22287;50.824;5.644;2023-04-02T17:24:33;101740.19;;;6.86;67.12
36248;BME280;22287;50.824;5.644;2023-04-02T17:27:28;101744.56;;;7.04;66.60
36248;BME280;22287;50.824;5.644;2023-04-02T17:30:04;101736.50;;;7.37;65.73
36248;BME280;22287;50.824;5.644;2023-04-02T17:32:33;101745.31;;;7.55;65.27
36248;BME280;22287;50.824;5.644;2023-04-02T17:40:44;101752.63;;;7.37;64.83
36248;BME280;22287;50.824;5.644;2023-04-02T17:43:35;101755.91;;;7.58;64.47
36248;BME280;22287;50.824;5.644;2023-04-02T17:46:34;101756.03;;;7.24;65.79
36248;BME280;22287;50.824;5.644;2023-04-02T17:49:14;101763.81;;;7.45;64.63
36248;BME280;22287;50.824;5.644;2023-04-02T17:52:00;101773.16;;;7.54;65.69
36248;BME280;22287;50.824;5.644;2023-04-02T18:02:55;101788.06;;;7.92;62.79